sensor_id;sensor_type;location;lat;lon;timestamp;P1;durP1;ratioP1;P2;durP2;ratioP2
47219;SDS011;32961;51.936;4.788;2024-02-14T00:00:23;10.82;;;8.38;;
47219;SDS011;32961;51.936;4.788;2024-02-14T00:02:51;11.38;;;7.53;;
47219;SDS011;32961;51.936;4.788;2024-02-14T00:05:19;9.80;;;7.63;;
47219;SDS011;32961;51.936;4.788;2024-02-14T00:07:47;12.07;;;8.40;;
47219;SDS011;32961;51.936;4.788;2024-02-14T00:10:15;10.90;;;7.72;;
47219;SDS011;32961;51.936;4.788;2024-02-14T00:12:43;12.25;;;7.80;;
47219;SDS011;32961;51.936;4.788;2024-02-14T00:15:13;11.35;;;7.97;;
47219;SDS011;32961;51.936;4.788;2024-02-14T00:17:42;11.48;;;8.25;;
47219;SDS011;32961;51.936;4.788;2024-02-14T00:20:10;12.95;;;8.50;;
47219;SDS011;32961;51.936;4.788;2024-02-14T00:22:39;11.65;;;8.85;;
47219;SDS011;32961;51.936;4.788;2024-02-14T00:25:07;14.57;;;7.95;;
47219;SDS011;32961;51.936;4.788;2024-02-14T00:27:35;11.80;;;8.32;;
47219;SDS011;32961;51.936;4.788;2024-02-14T00:30:04;12.57;;;8.48;;
47219;SDS011;32961;51.936;4.788;2024-02-14T00:32:33;11.45;;;8.32;;
47219;SDS011;32961;51.936;4.788;2024-02-14T00:35:03;10.98;;;7.97;;
47219;SDS011;32961;51.936;4.788;2024-02-14T00:37:32;11.68;;;7.88;;
47219;SDS011;32961;51.936;4.788;2024-02-14T00:40:00;13.65;;;7.97;;
47219;SDS011;32961;51.936;4.788;2024-02-14T00:42:28;11.50;;;7.60;;
47219;SDS011;32961;51.936;4.788;2024-02-14T00:44:56;9.20;;;7.72;;
47219;SDS011;32961;51.936;4.788;2024-02-14T00:47:24;11.75;;;8.07;;
47219;SDS011;32961;51.936;4.788;2024-02-14T00:49:52;12.98;;;8.25;;
47219;SDS011;32961;51.936;4.788;2024-02-14T00:52:21;12.50;;;8.70;;
47219;SDS011;32961;51.936;4.788;2024-02-14T00:54:49;19.55;;;9.45;;
47219;SDS011;32961;51.936;4.788;2024-02-14T00:57:17;13.52;;;8.27;;
47219;SDS011;32961;51.936;4.788;2024-02-14T00:59:52;11.90;;;8.77;;
47219;SDS011;32961;51.936;4.788;2024-02-14T01:02:22;16.25;;;8.65;;
47219;SDS011;32961;51.936;4.788;2024-02-14T01:04:52;12.77;;;8.75;;
47219;SDS011;32961;51.936;4.788;2024-02-14T01:07:21;13.73;;;9.57;;
47219;SDS011;32961;51.936;4.788;2024-02-14T01:09:49;13.60;;;8.48;;
47219;SDS011;32961;51.936;4.788;2024-02-14T01:12:20;12.63;;;8.35;;
47219;SDS011;32961;51.936;4.788;2024-02-14T01:14:48;17.00;;;9.30;;
47219;SDS011;32961;51.936;4.788;2024-02-14T01:17:16;11.50;;;8.60;;
47219;SDS011;32961;51.936;4.788;2024-02-14T01:19:44;19.35;;;9.07;;
47219;SDS011;32961;51.936;4.788;2024-02-14T01:22:12;16.67;;;9.13;;
47219;SDS011;32961;51.936;4.788;2024-02-14T01:24:44;12.88;;;8.45;;
47219;SDS011;32961;51.936;4.788;2024-02-14T01:27:12;11.13;;;8.38;;
47219;SDS011;32961;51.936;4.788;2024-02-14T01:29:40;13.85;;;8.63;;
47219;SDS011;32961;51.936;4.788;2024-02-14T01:32:07;17.67;;;9.43;;
47219;SDS011;32961;51.936;4.788;2024-02-14T01:34:36;12.73;;;8.20;;
47219;SDS011;32961;51.936;4.788;2024-02-14T01:37:03;14.48;;;8.00;;
47219;SDS011;32961;51.936;4.788;2024-02-14T01:39:32;15.68;;;9.00;;
47219;SDS011;32961;51.936;4.788;2024-02-14T01:42:01;12.27;;;8.38;;
47219;SDS011;32961;51.936;4.788;2024-02-14T01:44:33;13.60;;;9.02;;
47219;SDS011;32961;51.936;4.788;2024-02-14T01:47:03;14.10;;;8.25;;
47219;SDS011;32961;51.936;4.788;2024-02-14T01:49:32;13.50;;;8.80;;
47219;SDS011;32961;51.936;4.788;2024-02-14T01:52:02;13.02;;;8.98;;
47219;SDS011;32961;51.936;4.788;2024-02-14T01:54:31;13.77;;;8.88;;
47219;SDS011;32961;51.936;4.788;2024-02-14T01:57:02;15.60;;;9.45;;
47219;SDS011;32961;51.936;4.788;2024-02-14T01:59:32;13.13;;;8.50;;
47219;SDS011;32961;51.936;4.788;2024-02-14T02:02:02;16.23;;;8.95;;
47219;SDS011;32961;51.936;4.788;2024-02-14T02:04:33;10.95;;;9.00;;
47219;SDS011;32961;51.936;4.788;2024-02-14T02:07:02;13.65;;;9.00;;
47219;SDS011;32961;51.936;4.788;2024-02-14T02:09:30;16.88;;;9.00;;
47219;SDS011;32961;51.936;4.788;2024-02-14T02:11:59;11.45;;;9.00;;
47219;SDS011;32961;51.936;4.788;2024-02-14T02:14:29;12.68;;;8.82;;
47219;SDS011;32961;51.936;4.788;2024-02-14T02:16:57;11.57;;;8.73;;
47219;SDS011;32961;51.936;4.788;2024-02-14T02:19:25;15.90;;;9.00;;
47219;SDS011;32961;51.936;4.788;2024-02-14T02:21:52;13.82;;;9.57;;
47219;SDS011;32961;51.936;4.788;2024-02-14T02:24:22;14.13;;;8.70;;
47219;SDS011;32961;51.936;4.788;2024-02-14T02:26:49;18.83;;;9.60;;
47219;SDS011;32961;51.936;4.788;2024-02-14T02:29:17;15.80;;;9.68;;
47219;SDS011;32961;51.936;4.788;2024-02-14T02:31:46;15.13;;;9.15;;
47219;SDS011;32961;51.936;4.788;2024-02-14T02:34:14;15.13;;;10.30;;
47219;SDS011;32961;51.936;4.788;2024-02-14T02:36:43;16.60;;;10.00;;
47219;SDS011;32961;51.936;4.788;2024-02-14T02:39:12;19.83;;;12.18;;
47219;SDS011;32961;51.936;4.788;2024-02-14T02:41:41;13.73;;;9.32;;
47219;SDS011;32961;51.936;4.788;2024-02-14T02:46:41;13.68;;;10.35;;
47219;SDS011;32961;51.936;4.788;2024-02-14T02:49:10;19.65;;;10.70;;
47219;SDS011;32961;51.936;4.788;2024-02-14T02:51:40;14.82;;;10.10;;
47219;SDS011;32961;51.936;4.788;2024-02-14T02:54:08;13.82;;;9.65;;
47219;SDS011;32961;51.936;4.788;2024-02-14T02:56:37;13.82;;;9.63;;
47219;SDS011;32961;51.936;4.788;2024-02-14T02:59:08;16.65;;;9.40;;
47219;SDS011;32961;51.936;4.788;2024-02-14T03:01:36;16.25;;;9.80;;
47219;SDS011;32961;51.936;4.788;2024-02-14T03:04:04;16.33;;;10.13;;
47219;SDS011;32961;51.936;4.788;2024-02-14T03:06:33;19.15;;;9.38;;
47219;SDS011;32961;51.936;4.788;2024-02-14T03:09:01;19.13;;;9.48;;
47219;SDS011;32961;51.936;4.788;2024-02-14T03:11:29;19.25;;;10.35;;
47219;SDS011;32961;51.936;4.788;2024-02-14T03:13:57;17.67;;;9.70;;
47219;SDS011;32961;51.936;4.788;2024-02-14T03:16:26;23.33;;;10.60;;
47219;SDS011;32961;51.936;4.788;2024-02-14T03:18:54;22.70;;;10.07;;
47219;SDS011;32961;51.936;4.788;2024-02-14T03:21:22;19.40;;;9.65;;
47219;SDS011;32961;51.936;4.788;2024-02-14T03:23:49;22.52;;;9.80;;
47219;SDS011;32961;51.936;4.788;2024-02-14T03:26:20;19.48;;;9.85;;
47219;SDS011;32961;51.936;4.788;2024-02-14T03:28:48;23.77;;;9.63;;
47219;SDS011;32961;51.936;4.788;2024-02-14T03:31:16;16.13;;;9.07;;
47219;SDS011;32961;51.936;4.788;2024-02-14T03:33:45;19.65;;;8.50;;
47219;SDS011;32961;51.936;4.788;2024-02-14T03:36:13;18.25;;;9.10;;
47219;SDS011;32961;51.936;4.788;2024-02-14T03:38:41;19.08;;;8.93;;
47219;SDS011;32961;51.936;4.788;2024-02-14T03:41:09;23.55;;;8.45;;
47219;SDS011;32961;51.936;4.788;2024-02-14T03:43:36;17.83;;;8.30;;
47219;SDS011;32961;51.936;4.788;2024-02-14T03:46:04;17.98;;;8.00;;
47219;SDS011;32961;51.936;4.788;2024-02-14T03:48:32;17.15;;;8.73;;
47219;SDS011;32961;51.936;4.788;2024-02-14T03:51:02;21.83;;;8.93;;
47219;SDS011;32961;51.936;4.788;2024-02-14T03:53:30;20.70;;;8.38;;
47219;SDS011;32961;51.936;4.788;2024-02-14T03:55:59;18.70;;;8.23;;
47219;SDS011;32961;51.936;4.788;2024-02-14T03:58:27;26.50;;;10.77;;
47219;SDS011;32961;51.936;4.788;2024-02-14T04:00:55;16.70;;;8.93;;
47219;SDS011;32961;51.936;4.788;2024-02-14T04:03:23;15.82;;;8.55;;
47219;SDS011;32961;51.936;4.788;2024-02-14T04:05:51;23.38;;;10.38;;
47219;SDS011;32961;51.936;4.788;2024-02-14T04:08:20;18.80;;;8.43;;
47219;SDS011;32961;51.936;4.788;2024-02-14T04:10:48;26.80;;;9.77;;
47219;SDS011;32961;51.936;4.788;2024-02-14T04:13:17;22.90;;;8.75;;
47219;SDS011;32961;51.936;4.788;2024-02-14T04:15:45;18.77;;;8.93;;
47219;SDS011;32961;51.936;4.788;2024-02-14T04:18:13;20.48;;;9.38;;
47219;SDS011;32961;51.936;4.788;2024-02-14T04:20:42;24.83;;;10.25;;
47219;SDS011;32961;51.936;4.788;2024-02-14T04:23:10;19.15;;;8.90;;
47219;SDS011;32961;51.936;4.788;2024-02-14T04:25:39;18.90;;;9.55;;
47219;SDS011;32961;51.936;4.788;2024-02-14T04:28:07;19.27;;;9.80;;
47219;SDS011;32961;51.936;4.788;2024-02-14T04:30:37;23.13;;;8.60;;
47219;SDS011;32961;51.936;4.788;2024-02-14T04:33:05;22.58;;;9.32;;
47219;SDS011;32961;51.936;4.788;2024-02-14T04:35:39;24.90;;;10.65;;
47219;SDS011;32961;51.936;4.788;2024-02-14T04:38:08;20.92;;;9.00;;
47219;SDS011;32961;51.936;4.788;2024-02-14T04:40:35;23.67;;;8.77;;
47219;SDS011;32961;51.936;4.788;2024-02-14T04:43:05;14.70;;;9.02;;
47219;SDS011;32961;51.936;4.788;2024-02-14T04:45:34;17.05;;;7.85;;
47219;SDS011;32961;51.936;4.788;2024-02-14T04:48:02;18.38;;;9.82;;
47219;SDS011;32961;51.936;4.788;2024-02-14T04:50:30;16.85;;;9.63;;
47219;SDS011;32961;51.936;4.788;2024-02-14T04:52:58;17.13;;;8.80;;
47219;SDS011;32961;51.936;4.788;2024-02-14T04:55:26;15.40;;;8.15;;
47219;SDS011;32961;51.936;4.788;2024-02-14T04:57:55;18.70;;;8.55;;
47219;SDS011;32961;51.936;4.788;2024-02-14T05:00:24;20.92;;;8.90;;
47219;SDS011;32961;51.936;4.788;2024-02-14T05:02:52;17.20;;;9.95;;
47219;SDS011;32961;51.936;4.788;2024-02-14T05:05:20;15.98;;;9.95;;
47219;SDS011;32961;51.936;4.788;2024-02-14T05:07:48;19.52;;;9.75;;
47219;SDS011;32961;51.936;4.788;2024-02-14T05:10:16;15.60;;;9.68;;
47219;SDS011;32961;51.936;4.788;2024-02-14T05:12:44;16.33;;;9.95;;
47219;SDS011;32961;51.936;4.788;2024-02-14T05:15:12;20.67;;;9.98;;
47219;SDS011;32961;51.936;4.788;2024-02-14T05:17:42;14.07;;;9.48;;
47219;SDS011;32961;51.936;4.788;2024-02-14T05:20:11;16.23;;;8.88;;
47219;SDS011;32961;51.936;4.788;2024-02-14T05:22:39;13.38;;;8.13;;
47219;SDS011;32961;51.936;4.788;2024-02-14T05:25:07;13.60;;;8.23;;
47219;SDS011;32961;51.936;4.788;2024-02-14T05:27:36;12.18;;;7.75;;
47219;SDS011;32961;51.936;4.788;2024-02-14T05:30:04;9.20;;;7.63;;
47219;SDS011;32961;51.936;4.788;2024-02-14T05:32:35;10.90;;;7.90;;
47219;SDS011;32961;51.936;4.788;2024-02-14T05:35:05;11.93;;;7.28;;
47219;SDS011;32961;51.936;4.788;2024-02-14T05:37:34;12.23;;;7.95;;
47219;SDS011;32961;51.936;4.788;2024-02-14T05:40:05;15.77;;;8.60;;
47219;SDS011;32961;51.936;4.788;2024-02-14T05:42:34;13.10;;;8.90;;
47219;SDS011;32961;51.936;4.788;2024-02-14T05:45:02;12.15;;;8.38;;
47219;SDS011;32961;51.936;4.788;2024-02-14T05:47:32;18.13;;;11.25;;
47219;SDS011;32961;51.936;4.788;2024-02-14T05:50:00;19.13;;;9.10;;
47219;SDS011;32961;51.936;4.788;2024-02-14T05:52:30;11.60;;;8.63;;
47219;SDS011;32961;51.936;4.788;2024-02-14T05:54:58;14.07;;;9.05;;
47219;SDS011;32961;51.936;4.788;2024-02-14T05:57:25;14.85;;;8.68;;
47219;SDS011;32961;51.936;4.788;2024-02-14T05:59:53;15.13;;;9.45;;
47219;SDS011;32961;51.936;4.788;2024-02-14T06:02:23;20.42;;;9.60;;
47219;SDS011;32961;51.936;4.788;2024-02-14T06:04:51;14.38;;;9.48;;
47219;SDS011;32961;51.936;4.788;2024-02-14T06:07:19;20.05;;;10.30;;
47219;SDS011;32961;51.936;4.788;2024-02-14T06:09:48;19.58;;;9.50;;
47219;SDS011;32961;51.936;4.788;2024-02-14T06:12:16;18.27;;;10.57;;
47219;SDS011;32961;51.936;4.788;2024-02-14T06:14:44;16.55;;;9.70;;
47219;SDS011;32961;51.936;4.788;2024-02-14T06:17:12;17.90;;;10.23;;
47219;SDS011;32961;51.936;4.788;2024-02-14T06:19:39;20.33;;;10.73;;
47219;SDS011;32961;51.936;4.788;2024-02-14T06:22:07;23.15;;;11.80;;
47219;SDS011;32961;51.936;4.788;2024-02-14T06:24:35;20.52;;;11.40;;
47219;SDS011;32961;51.936;4.788;2024-02-14T06:27:04;18.45;;;11.20;;
47219;SDS011;32961;51.936;4.788;2024-02-14T06:29:34;20.75;;;11.93;;
47219;SDS011;32961;51.936;4.788;2024-02-14T06:32:02;24.92;;;11.25;;
47219;SDS011;32961;51.936;4.788;2024-02-14T06:34:30;22.33;;;11.15;;
47219;SDS011;32961;51.936;4.788;2024-02-14T06:36:58;23.95;;;11.90;;
47219;SDS011;32961;51.936;4.788;2024-02-14T06:39:26;19.88;;;11.88;;
47219;SDS011;32961;51.936;4.788;2024-02-14T06:41:54;23.55;;;13.70;;
47219;SDS011;32961;51.936;4.788;2024-02-14T06:44:25;20.27;;;11.45;;
47219;SDS011;32961;51.936;4.788;2024-02-14T06:46:52;25.20;;;11.90;;
47219;SDS011;32961;51.936;4.788;2024-02-14T06:49:20;25.88;;;11.60;;
47219;SDS011;32961;51.936;4.788;2024-02-14T06:51:48;22.73;;;12.18;;
47219;SDS011;32961;51.936;4.788;2024-02-14T06:54:16;20.45;;;11.45;;
47219;SDS011;32961;51.936;4.788;2024-02-14T06:56:45;21.35;;;11.00;;
47219;SDS011;32961;51.936;4.788;2024-02-14T06:59:14;24.30;;;11.82;;
47219;SDS011;32961;51.936;4.788;2024-02-14T07:01:43;17.23;;;11.60;;
47219;SDS011;32961;51.936;4.788;2024-02-14T07:04:11;27.67;;;16.45;;
47219;SDS011;32961;51.936;4.788;2024-02-14T07:06:39;21.58;;;11.50;;
47219;SDS011;32961;51.936;4.788;2024-02-14T07:09:07;24.17;;;13.35;;
47219;SDS011;32961;51.936;4.788;2024-02-14T07:11:38;25.02;;;12.30;;
47219;SDS011;32961;51.936;4.788;2024-02-14T07:14:06;17.15;;;11.15;;
47219;SDS011;32961;51.936;4.788;2024-02-14T07:16:35;23.77;;;12.52;;
47219;SDS011;32961;51.936;4.788;2024-02-14T07:19:05;16.25;;;10.60;;
47219;SDS011;32961;51.936;4.788;2024-02-14T07:21:33;22.08;;;11.77;;
47219;SDS011;32961;51.936;4.788;2024-02-14T07:24:00;18.63;;;10.68;;
47219;SDS011;32961;51.936;4.788;2024-02-14T07:26:29;16.23;;;10.50;;
47219;SDS011;32961;51.936;4.788;2024-02-14T07:28:57;15.75;;;10.30;;
47219;SDS011;32961;51.936;4.788;2024-02-14T07:31:27;17.58;;;10.15;;
47219;SDS011;32961;51.936;4.788;2024-02-14T07:33:56;16.27;;;10.23;;
47219;SDS011;32961;51.936;4.788;2024-02-14T07:36:26;16.35;;;9.98;;
47219;SDS011;32961;51.936;4.788;2024-02-14T07:38:54;17.23;;;10.63;;
47219;SDS011;32961;51.936;4.788;2024-02-14T07:41:22;20.63;;;10.40;;
47219;SDS011;32961;51.936;4.788;2024-02-14T07:43:50;20.80;;;11.80;;
47219;SDS011;32961;51.936;4.788;2024-02-14T07:46:19;17.45;;;11.23;;
47219;SDS011;32961;51.936;4.788;2024-02-14T07:48:48;20.65;;;11.63;;
47219;SDS011;32961;51.936;4.788;2024-02-14T07:51:16;19.42;;;11.98;;
47219;SDS011;32961;51.936;4.788;2024-02-14T07:53:49;20.25;;;12.73;;
47219;SDS011;32961;51.936;4.788;2024-02-14T07:56:17;21.42;;;12.30;;
47219;SDS011;32961;51.936;4.788;2024-02-14T07:58:46;28.00;;;12.35;;
47219;SDS011;32961;51.936;4.788;2024-02-14T08:01:16;19.25;;;10.98;;
47219;SDS011;32961;51.936;4.788;2024-02-14T08:03:43;23.55;;;10.95;;
47219;SDS011;32961;51.936;4.788;2024-02-14T08:06:12;15.00;;;9.80;;
47219;SDS011;32961;51.936;4.788;2024-02-14T08:08:41;16.13;;;8.38;;
47219;SDS011;32961;51.936;4.788;2024-02-14T08:11:11;23.25;;;10.35;;
47219;SDS011;32961;51.936;4.788;2024-02-14T08:13:39;15.85;;;8.18;;
47219;SDS011;32961;51.936;4.788;2024-02-14T08:16:07;18.10;;;8.77;;
47219;SDS011;32961;51.936;4.788;2024-02-14T08:18:35;14.35;;;9.10;;
47219;SDS011;32961;51.936;4.788;2024-02-14T08:21:03;15.80;;;7.95;;
47219;SDS011;32961;51.936;4.788;2024-02-14T08:23:32;11.77;;;7.70;;
47219;SDS011;32961;51.936;4.788;2024-02-14T08:26:01;11.20;;;8.00;;
47219;SDS011;32961;51.936;4.788;2024-02-14T08:28:30;17.77;;;8.27;;
47219;SDS011;32961;51.936;4.788;2024-02-14T08:30:58;14.07;;;8.25;;
47219;SDS011;32961;51.936;4.788;2024-02-14T08:33:26;23.40;;;11.20;;
47219;SDS011;32961;51.936;4.788;2024-02-14T08:35:54;20.08;;;9.70;;
47219;SDS011;32961;51.936;4.788;2024-02-14T08:38:24;23.70;;;9.93;;
47219;SDS011;32961;51.936;4.788;2024-02-14T08:40:51;21.60;;;9.75;;
47219;SDS011;32961;51.936;4.788;2024-02-14T08:43:19;20.42;;;9.93;;
47219;SDS011;32961;51.936;4.788;2024-02-14T08:45:48;19.48;;;10.60;;
47219;SDS011;32961;51.936;4.788;2024-02-14T08:48:17;21.60;;;9.38;;
47219;SDS011;32961;51.936;4.788;2024-02-14T08:50:46;23.63;;;9.10;;
47219;SDS011;32961;51.936;4.788;2024-02-14T08:53:13;17.95;;;9.05;;
47219;SDS011;32961;51.936;4.788;2024-02-14T08:55:41;21.05;;;9.77;;
47219;SDS011;32961;51.936;4.788;2024-02-14T08:58:09;27.35;;;10.30;;
47219;SDS011;32961;51.936;4.788;2024-02-14T09:00:37;21.35;;;10.13;;
47219;SDS011;32961;51.936;4.788;2024-02-14T09:03:08;26.13;;;10.50;;
47219;SDS011;32961;51.936;4.788;2024-02-14T09:05:36;30.90;;;11.23;;
47219;SDS011;32961;51.936;4.788;2024-02-14T09:08:05;18.85;;;10.65;;
47219;SDS011;32961;51.936;4.788;2024-02-14T09:10:34;17.48;;;10.43;;
47219;SDS011;32961;51.936;4.788;2024-02-14T09:13:01;21.15;;;10.52;;
47219;SDS011;32961;51.936;4.788;2024-02-14T09:15:30;22.27;;;11.43;;
47219;SDS011;32961;51.936;4.788;2024-02-14T09:17:59;38.10;;;12.48;;
47219;SDS011;32961;51.936;4.788;2024-02-14T09:20:31;19.88;;;10.88;;
47219;SDS011;32961;51.936;4.788;2024-02-14T09:22:59;20.13;;;10.65;;
47219;SDS011;32961;51.936;4.788;2024-02-14T09:25:27;14.98;;;10.63;;
47219;SDS011;32961;51.936;4.788;2024-02-14T09:27:54;18.17;;;9.48;;
47219;SDS011;32961;51.936;4.788;2024-02-14T09:30:22;18.38;;;9.40;;
47219;SDS011;32961;51.936;4.788;2024-02-14T09:33:03;18.95;;;10.68;;
47219;SDS011;32961;51.936;4.788;2024-02-14T09:35:33;19.67;;;9.55;;
47219;SDS011;32961;51.936;4.788;2024-02-14T09:38:01;14.60;;;9.00;;
47219;SDS011;32961;51.936;4.788;2024-02-14T09:40:29;18.80;;;9.38;;
47219;SDS011;32961;51.936;4.788;2024-02-14T09:42:57;13.40;;;8.95;;
47219;SDS011;32961;51.936;4.788;2024-02-14T09:45:31;16.55;;;9.68;;
47219;SDS011;32961;51.936;4.788;2024-02-14T09:48:00;17.48;;;9.13;;
47219;SDS011;32961;51.936;4.788;2024-02-14T09:50:29;30.13;;;11.88;;
47219;SDS011;32961;51.936;4.788;2024-02-14T09:53:00;12.15;;;8.43;;
47219;SDS011;32961;51.936;4.788;2024-02-14T09:55:30;20.85;;;11.10;;
47219;SDS011;32961;51.936;4.788;2024-02-14T09:57:59;16.63;;;9.70;;
47219;SDS011;32961;51.936;4.788;2024-02-14T10:00:30;14.35;;;9.40;;
47219;SDS011;32961;51.936;4.788;2024-02-14T10:02:59;21.35;;;10.02;;
47219;SDS011;32961;51.936;4.788;2024-02-14T10:05:27;14.10;;;9.07;;
47219;SDS011;32961;51.936;4.788;2024-02-14T10:07:56;17.10;;;11.55;;
47219;SDS011;32961;51.936;4.788;2024-02-14T10:10:26;16.25;;;11.25;;
47219;SDS011;32961;51.936;4.788;2024-02-14T10:12:54;20.90;;;8.95;;
47219;SDS011;32961;51.936;4.788;2024-02-14T10:15:22;13.85;;;8.48;;
47219;SDS011;32961;51.936;4.788;2024-02-14T10:17:51;16.33;;;8.65;;
47219;SDS011;32961;51.936;4.788;2024-02-14T10:20:20;13.98;;;8.50;;
47219;SDS011;32961;51.936;4.788;2024-02-14T10:22:49;17.88;;;8.05;;
47219;SDS011;32961;51.936;4.788;2024-02-14T10:25:16;14.25;;;8.48;;
47219;SDS011;32961;51.936;4.788;2024-02-14T10:27:46;16.00;;;7.63;;
47219;SDS011;32961;51.936;4.788;2024-02-14T10:30:15;11.98;;;7.38;;
47219;SDS011;32961;51.936;4.788;2024-02-14T10:32:43;11.18;;;6.70;;
47219;SDS011;32961;51.936;4.788;2024-02-14T10:35:14;16.05;;;7.45;;
47219;SDS011;32961;51.936;4.788;2024-02-14T10:37:43;16.73;;;10.48;;
47219;SDS011;32961;51.936;4.788;2024-02-14T10:40:12;14.60;;;8.35;;
47219;SDS011;32961;51.936;4.788;2024-02-14T10:42:40;10.23;;;7.22;;
47219;SDS011;32961;51.936;4.788;2024-02-14T10:45:09;10.80;;;6.63;;
47219;SDS011;32961;51.936;4.788;2024-02-14T10:47:38;16.52;;;7.00;;
47219;SDS011;32961;51.936;4.788;2024-02-14T10:50:10;17.38;;;7.45;;
47219;SDS011;32961;51.936;4.788;2024-02-14T10:52:41;11.65;;;6.82;;
47219;SDS011;32961;51.936;4.788;2024-02-14T10:55:09;20.83;;;7.75;;
47219;SDS011;32961;51.936;4.788;2024-02-14T10:57:38;12.18;;;7.50;;
47219;SDS011;32961;51.936;4.788;2024-02-14T11:00:10;11.35;;;8.70;;
47219;SDS011;32961;51.936;4.788;2024-02-14T11:02:40;15.35;;;8.80;;
47219;SDS011;32961;51.936;4.788;2024-02-14T11:05:11;11.75;;;7.78;;
47219;SDS011;32961;51.936;4.788;2024-02-14T11:07:44;10.82;;;7.93;;
47219;SDS011;32961;51.936;4.788;2024-02-14T11:10:13;11.18;;;7.30;;
47219;SDS011;32961;51.936;4.788;2024-02-14T11:12:43;11.93;;;7.38;;
47219;SDS011;32961;51.936;4.788;2024-02-14T11:15:16;16.65;;;7.80;;
47219;SDS011;32961;51.936;4.788;2024-02-14T11:20:14;16.00;;;7.90;;
47219;SDS011;32961;51.936;4.788;2024-02-14T11:22:52;10.82;;;7.55;;
47219;SDS011;32961;51.936;4.788;2024-02-14T11:25:22;16.13;;;8.63;;
47219;SDS011;32961;51.936;4.788;2024-02-14T11:27:52;12.32;;;8.73;;
47219;SDS011;32961;51.936;4.788;2024-02-14T11:30:31;12.35;;;8.63;;
47219;SDS011;32961;51.936;4.788;2024-02-14T11:33:13;17.45;;;8.65;;
47219;SDS011;32961;51.936;4.788;2024-02-14T11:35:45;12.43;;;8.55;;
47219;SDS011;32961;51.936;4.788;2024-02-14T11:38:14;15.77;;;8.63;;
47219;SDS011;32961;51.936;4.788;2024-02-14T11:40:42;9.23;;;8.23;;
47219;SDS011;32961;51.936;4.788;2024-02-14T11:43:10;10.32;;;7.75;;
47219;SDS011;32961;51.936;4.788;2024-02-14T11:45:41;12.68;;;7.40;;
47219;SDS011;32961;51.936;4.788;2024-02-14T11:48:11;10.10;;;7.95;;
47219;SDS011;32961;51.936;4.788;2024-02-14T11:50:42;9.45;;;7.22;;
47219;SDS011;32961;51.936;4.788;2024-02-14T11:53:11;15.10;;;7.28;;
47219;SDS011;32961;51.936;4.788;2024-02-14T11:55:40;11.50;;;6.40;;
47219;SDS011;32961;51.936;4.788;2024-02-14T11:58:08;8.65;;;6.60;;
47219;SDS011;32961;51.936;4.788;2024-02-14T12:00:37;8.23;;;6.35;;
47219;SDS011;32961;51.936;4.788;2024-02-14T12:03:10;13.48;;;8.00;;
47219;SDS011;32961;51.936;4.788;2024-02-14T12:05:39;17.70;;;9.80;;
47219;SDS011;32961;51.936;4.788;2024-02-14T12:08:09;7.43;;;5.88;;
47219;SDS011;32961;51.936;4.788;2024-02-14T12:10:38;6.97;;;5.57;;
47219;SDS011;32961;51.936;4.788;2024-02-14T12:13:06;8.18;;;6.22;;
47219;SDS011;32961;51.936;4.788;2024-02-14T12:15:39;6.53;;;5.88;;
47219;SDS011;32961;51.936;4.788;2024-02-14T12:18:08;8.70;;;5.80;;
47219;SDS011;32961;51.936;4.788;2024-02-14T12:20:37;7.28;;;6.07;;
47219;SDS011;32961;51.936;4.788;2024-02-14T12:23:05;8.70;;;7.63;;
47219;SDS011;32961;51.936;4.788;2024-02-14T12:25:33;7.00;;;5.95;;
47219;SDS011;32961;51.936;4.788;2024-02-14T12:28:01;10.32;;;6.38;;
47219;SDS011;32961;51.936;4.788;2024-02-14T12:30:42;8.52;;;5.65;;
47219;SDS011;32961;51.936;4.788;2024-02-14T12:33:13;6.57;;;5.20;;
47219;SDS011;32961;51.936;4.788;2024-02-14T12:35:42;6.85;;;4.97;;
47219;SDS011;32961;51.936;4.788;2024-02-14T12:38:10;11.20;;;7.80;;
47219;SDS011;32961;51.936;4.788;2024-02-14T12:40:39;5.90;;;4.68;;
47219;SDS011;32961;51.936;4.788;2024-02-14T12:43:09;7.05;;;5.25;;
47219;SDS011;32961;51.936;4.788;2024-02-14T12:45:37;6.35;;;5.18;;
47219;SDS011;32961;51.936;4.788;2024-02-14T12:48:05;5.47;;;4.63;;
47219;SDS011;32961;51.936;4.788;2024-02-14T12:50:36;6.50;;;4.70;;
47219;SDS011;32961;51.936;4.788;2024-02-14T12:53:04;9.75;;;5.82;;
47219;SDS011;32961;51.936;4.788;2024-02-14T12:55:32;6.05;;;4.55;;
47219;SDS011;32961;51.936;4.788;2024-02-14T12:58:00;5.60;;;5.00;;
47219;SDS011;32961;51.936;4.788;2024-02-14T13:00:30;6.93;;;4.60;;
47219;SDS011;32961;51.936;4.788;2024-02-14T13:02:59;7.22;;;4.95;;
47219;SDS011;32961;51.936;4.788;2024-02-14T13:05:27;6.00;;;5.00;;
47219;SDS011;32961;51.936;4.788;2024-02-14T13:07:57;8.27;;;5.20;;
47219;SDS011;32961;51.936;4.788;2024-02-14T13:10:24;7.72;;;6.00;;
47219;SDS011;32961;51.936;4.788;2024-02-14T13:12:52;6.35;;;5.43;;
47219;SDS011;32961;51.936;4.788;2024-02-14T13:15:24;6.63;;;5.47;;
47219;SDS011;32961;51.936;4.788;2024-02-14T13:17:51;8.95;;;5.53;;
47219;SDS011;32961;51.936;4.788;2024-02-14T13:20:19;5.93;;;4.70;;
47219;SDS011;32961;51.936;4.788;2024-02-14T13:22:47;8.75;;;5.03;;
47219;SDS011;32961;51.936;4.788;2024-02-14T13:25:17;6.63;;;4.88;;
47219;SDS011;32961;51.936;4.788;2024-02-14T13:27:44;7.78;;;4.95;;
47219;SDS011;32961;51.936;4.788;2024-02-14T13:30:12;6.75;;;4.80;;
47219;SDS011;32961;51.936;4.788;2024-02-14T13:32:41;11.38;;;4.78;;
47219;SDS011;32961;51.936;4.788;2024-02-14T13:35:09;7.55;;;4.82;;
47219;SDS011;32961;51.936;4.788;2024-02-14T13:37:39;8.75;;;4.63;;
47219;SDS011;32961;51.936;4.788;2024-02-14T13:40:08;6.65;;;4.40;;
47219;SDS011;32961;51.936;4.788;2024-02-14T13:42:41;6.35;;;4.30;;
47219;SDS011;32961;51.936;4.788;2024-02-14T13:45:08;7.13;;;4.00;;
47219;SDS011;32961;51.936;4.788;2024-02-14T13:47:37;6.13;;;3.80;;
47219;SDS011;32961;51.936;4.788;2024-02-14T13:50:07;4.55;;;3.15;;
47219;SDS011;32961;51.936;4.788;2024-02-14T13:52:36;5.57;;;3.90;;
47219;SDS011;32961;51.936;4.788;2024-02-14T13:55:04;7.03;;;4.40;;
47219;SDS011;32961;51.936;4.788;2024-02-14T13:57:36;6.53;;;3.28;;
47219;SDS011;32961;51.936;4.788;2024-02-14T14:00:07;4.13;;;3.10;;
47219;SDS011;32961;51.936;4.788;2024-02-14T14:02:36;5.07;;;3.40;;
47219;SDS011;32961;51.936;4.788;2024-02-14T14:05:08;6.63;;;4.20;;
47219;SDS011;32961;51.936;4.788;2024-02-14T14:07:39;5.57;;;3.80;;
47219;SDS011;32961;51.936;4.788;2024-02-14T14:10:23;5.45;;;4.00;;
47219;SDS011;32961;51.936;4.788;2024-02-14T14:12:52;7.82;;;4.82;;
47219;SDS011;32961;51.936;4.788;2024-02-14T14:15:21;7.15;;;4.70;;
47219;SDS011;32961;51.936;4.788;2024-02-14T14:17:50;7.28;;;4.10;;
47219;SDS011;32961;51.936;4.788;2024-02-14T14:20:18;6.03;;;3.75;;
47219;SDS011;32961;51.936;4.788;2024-02-14T14:22:47;6.88;;;3.67;;
47219;SDS011;32961;51.936;4.788;2024-02-14T14:25:15;5.65;;;3.55;;
47219;SDS011;32961;51.936;4.788;2024-02-14T14:27:44;5.60;;;4.03;;
47219;SDS011;32961;51.936;4.788;2024-02-14T14:30:12;8.27;;;4.97;;
47219;SDS011;32961;51.936;4.788;2024-02-14T14:32:42;6.43;;;3.03;;
47219;SDS011;32961;51.936;4.788;2024-02-14T14:35:10;5.70;;;3.10;;
47219;SDS011;32961;51.936;4.788;2024-02-14T14:37:38;4.90;;;3.10;;
47219;SDS011;32961;51.936;4.788;2024-02-14T14:40:06;4.60;;;3.00;;
47219;SDS011;32961;51.936;4.788;2024-02-14T14:42:37;4.75;;;2.70;;
47219;SDS011;32961;51.936;4.788;2024-02-14T14:45:07;4.35;;;3.50;;
47219;SDS011;32961;51.936;4.788;2024-02-14T14:47:35;7.60;;;4.65;;